Terminal Aerodrome Forecast
Issued by NWS Upton, NY

Home | Current Version | Previous Version | Text Only | Print | Product List | Glossary On
Versions: 1 2 3 4 5 6 7 8 9 10 11 12 13 14 15 16 17 18 19 20 21 22 23 24 25 26 27 28 29 30 31 32 33
513
FTUS41 KOKX 221530 AAB
TAFJFK
TAF AMD
KJFK 221530Z 2216/2318 20007KT P6SM BKN070
     FM221900 19006KT P6SM SCT070 BKN100
     FM230200 VRB03KT 6SM BR BKN250
     FM230700 VRB03KT 3SM BR SCT010 BKN250
     FM231000 VRB04KT 2SM BR SCT005 SCT250
     FM231500 19007KT 6SM BR SCT008 BKN030=

USA.gov is the U.S. government's official web portal to all federal, state and local government web resources and services.